Aviation Digital Data Service (ADDS)

Output produced by METARs form (1809 UTC 14 August 2018)
found at http://www.aviationweather.gov/adds/metars/
 
HEAX 141700Z 31010KT 9999 SCT020 28/19 Q1008 NOSIG
TAF HEAX 141700Z 1418/1524 33008KT 9999 FEW020
       
HEBA 141700Z 33010KT 9999 FEW020 26/18 Q1009 NOSIG
TAF HEBA 141700Z 1418/1524 33008KT 9999 FEW020
       
HESN 141500Z 34015G25KT CAVOK 42/10 Q1005 NOSIG
TAF HESN 141700Z 1418/1524 34012KT CAVOK
       
HEAT 141700Z 35012KT CAVOK 35/13 Q1009 NOSIG
TAF HEAT 141700Z 1418/1524 34014KT CAVOK
       
HECA 141800Z 34011KT CAVOK 31/20 Q1009 NOSIG
TAF HECA 141700Z 1418/1524 33010KT CAVOK
       
HEAR 141400Z 32011KT CAVOK 30/17 Q1007 NOSIG
TAF HEAR 141700Z 1418/1524 32008KT 9999 SCT020
       
HEGN 141700Z 36017KT CAVOK 35/13 Q1004 NOSIG
TAF HEGN 141700Z 1418/1524 36015KT CAVOK
       
HELX 141700Z 30008KT CAVOK 37/16 Q1005 NOSIG
TAF HELX 141700Z 1418/1524 30010KT CAVOK
       
HEMM 141700Z 33009KT CAVOK 28/19 Q1010 NOSIG
TAF HEMM 141700Z 1418/1524 32008KT CAVOK
       
HEPS 141700Z 32011KT CAVOK 28/23 Q1008 NOSIG
TAF HEPS 141700Z 1418/1524 32012KT 9999 FEW025
       
HESH 141700Z 36007KT CAVOK 35/07 Q1004 NOSIG
TAF HESH 141700Z 1418/1524 01012KT CAVOK
       
TAF HETB 141700Z 1418/1524 03015KT CAVOK